Branscomb, CA (95417)

4:17 PM PST on March 02, 2015 (GMT -0800)
Laytonville | Change Station
CLOSE
Current Station
Personal Weather Station
Location: Laytonville, CA
Elevation: 1650 ft
Nearby Weather Stations

Elev 1650 ft 39.67 °N, 123.48 °W | Updated 1 second ago

Mostly Cloudy
Mostly Cloudy
56.8 °F
Feels Like 56.8 °F
N
2.0
Wind Variable Wind from SW
Gusts 4.0 mph

Today
High -- | Low -- °F
--% Chance of Precip.
Yesterday
High -- | Low -- °F
Precip. -- in
6:46 AM 6:07 PM
Waxing Gibbous, 93% visible
Pressure 29.79 in
Visibility 10.0 miles
Clouds Overcast 7000 ft
Dew Point 43 °F
Humidity 59%
Rainfall 0.00 in
Snow Depth Not available.
UV 1 out of 12
Pollen 6.60 out of 12
Air Quality Not available.
Flu Activity Not available.
METAR KUKI 022356Z AUTO VRB06KT 10SM OVC070 16/01 A2980 RMK AO2 SLP088 T01610006 10183 20089 53009

More Conditions Fewer Conditions

Pressure 29.79 in
Visibility 10.0 miles
Clouds Overcast 7000 ft
Dew Point 43 °F
Humidity 59%
Rainfall 0.00 in
Snow Depth Not available.
UV 1 out of 12
Pollen 6.60 out of 12
Air Quality Not available.
Flu Activity Not available.
METAR KUKI 022356Z AUTO VRB06KT 10SM OVC070 16/01 A2980 RMK AO2 SLP088 T01610006 10183 20089 53009

More Conditions Fewer Conditions

10-Day Weather Forecast

Almanac

Astronomy

Mar. 02, 2015 Rise Set
Actual Time
Civil Twilight
Nautical Twilight
Astronomical Twilight
Moon
Length of Visible Light
Length of Day
Tomorrow will be .
, % of the Moon is Illuminated

Today's Extremes

State Highs State Lows

Community

WunderPhotos

Upload Photos

1,802,005 photos uploaded!

WunderBlogs® & News

Nearby

Air Quality

  Air Quality AQ Index Pollutant
Not available.

Snow Depth

Station Depth Elevation

Earthquake Activity

City Distance Mag. Time & Date
Minimum magnitude displayed is 2.5.

Coastal Water Temperatures

Place Temperature

Nearby Weather Stations